CYLW/YLW METAR and TAF weather

Enter ICAO airport designator
Station Type Date Time Source
CYLW METAR 2019/08/22 03:53 UTC NOAA

CYLW 220353Z AUTO 36006KT 9SM FEW065 OVC090 18/16 A2988 RMK SLP115 DENSITY ALT 2100FT


Station Type Date Time Source
CYLW Decoded METAR 2019/08/22 03:53 UTC NOAA

Station name not available
Aug 21, 2019 - 11:53 PM EDT / 2019.08.22 0353 UTC
Wind: from the N (360 degrees) at 7 MPH (6 KT):0
Visibility: 9 mile(s):0
Sky conditions: overcast
Temperature: 64 F (18 C)
Dew Point: 60 F (16 C)
Relative Humidity: 88%
Pressure (altimeter): 29.88 in. Hg (1011 hPa)
ob: CYLW 220353Z AUTO 36006KT 9SM FEW065 OVC090 18/16 A2988 RMK SLP115 DENSITY ALT 2100FT
cycle: 4

Station Type Date Time Source
CYLW TAF 2019/08/22 01:39 UTC NOAA

TAF CYLW 220038Z 2201/2213 VRB03KT P6SM BKN120
TEMPO 2201/2203 P6SM -SHRA OVC080
FM220300 VRB03KT P6SM SCT080
TEMPO 2203/2208 BKN080
FM220800 VRB03KT P6SM FEW280 PROB30 2208/2213 3/4SM BR
RMK FCST BASED ON AUTO OBS. NXT FCST BY 220700Z

Example: see airport list